Погода Глинникина 2 недели

Витебская область, Белоруссия

23 мая-05 июня
  • 23мая
    Сегодня
    +11°
    +24°
    Практически безоблачно
    ВремяПогодаТемператураВлажностьДавлениеВетер, м/сВероятность осадков
    00:00Ясно и безоблачно+15°C93 %748 мм3.5 м/с2 %
    03:00Ясно и безоблачно+14°C94 %748 мм3.4 м/с2 %
    06:00Ясно и безоблачно+13°C95 %749 мм4.2 м/с2 %
    09:00Ясно и безоблачно+19°C78 %750 мм4.2 м/с2 %
    12:00Ясно и безоблачно+22°C62 %750 мм5.0 м/с5 %
    15:00Практически безоблачно+23°C56 %750 мм5.4 м/с11 %
    18:00Небольшая облачность+22°C54 %750 мм5.2 м/с22 %
    21:00Ясно и безоблачно+19°C58 %751 мм4.6 м/с2 %
  • 24мая
    Пятница
    +10°
    +22°
    Практически безоблачно
    ВремяПогодаТемператураВлажностьДавлениеВетер, м/сВероятность осадков
    00:00Практически безоблачно+15°C56 %752 мм4.9 м/с2 %
    03:00Ясно и безоблачно+13°C61 %753 мм4.5 м/с2 %
    06:00Ясно и безоблачно+11°C63 %754 мм4.7 м/с2 %
    09:00Ясно и безоблачно+16°C56 %754 мм4.8 м/с2 %
    12:00Ясно и безоблачно+20°C48 %754 мм4.8 м/с2 %
    15:00Практически безоблачно+21°C42 %754 мм4.8 м/с2 %
    18:00Облачно с прояснениями+21°C43 %753 мм4.6 м/с2 %
    21:00Ясно и безоблачно+16°C58 %753 мм3.4 м/с2 %
  • 25мая
    Суббота
    +10°
    +24°
    Ясно и безоблачно
    ВремяПогодаТемператураВлажностьДавлениеВетер, м/сВероятность осадков
    00:00Небольшая облачность+14°C61 %753 мм3.5 м/с2 %
    03:00Облачно с прояснениями+11°C65 %753 мм3.4 м/с2 %
    06:00Ясно и безоблачно+11°C70 %753 мм3.4 м/с2 %
    09:00Практически безоблачно+16°C58 %753 мм3.4 м/с2 %
    12:00Практически безоблачно+21°C49 %753 мм3.1 м/с2 %
    15:00Ясно и безоблачно+23°C40 %753 мм3.4 м/с2 %
    18:00Ясно и безоблачно+23°C41 %752 мм3.3 м/с3 %
    21:00Ясно и безоблачно+18°C63 %751 мм2.3 м/с2 %
  • 26мая
    Воскресенье
    +12°
    +24°
    Практически безоблачно
    ВремяПогодаТемператураВлажностьДавлениеВетер, м/сВероятность осадков
    00:00Ясно и безоблачно+14°C70 %751 мм2.3 м/с2 %
    03:00Ясно и безоблачно+11°C75 %751 мм2.6 м/с2 %
    06:00Ясно и безоблачно+12°C76 %751 мм1.8 м/с2 %
    09:00Облачно с прояснениями+19°C55 %752 мм1.4 м/с2 %
    12:00Облачно с прояснениями+22°C38 %752 мм1.4 м/с2 %
    15:00Практически безоблачно+24°C37 %752 мм1.1 м/с2 %
    18:00Ясно и безоблачно+23°C39 %751 мм1.2 м/с2 %
    21:00Ясно и безоблачно+18°C70 %751 мм1.7 м/с2 %
  • 27мая
    Понедельник
    +13°
    +26°
    Небольшая облачность
    ВремяПогодаТемператураВлажностьДавлениеВетер, м/сВероятность осадков
    00:00Ясно и безоблачно+15°C74 %751 мм2.0 м/с2 %
    03:00Ясно и безоблачно+13°C79 %751 мм2.2 м/с2 %
    06:00Ясно и безоблачно+15°C71 %752 мм2.7 м/с2 %
    09:00Практически безоблачно+21°C59 %752 мм2.2 м/с2 %
    12:00Ясно и безоблачно+24°C48 %752 мм2.7 м/с11 %
    15:00Небольшая облачность+25°C49 %752 мм2.6 м/с23 %
    18:00Небольшая облачность+24°C61 %751 мм2.4 м/с35 %
    21:00Практически безоблачно+20°C76 %751 мм1.7 м/с9 %
Мы используем cookies
Соглашаюсь